Time;durP1;ratioP1;P1;durP2;ratioP2;P2;SDS_P1;SDS_P2;PMS_P1;PMS_P2;Temp;Humidity;BMP_temperature;BMP_pressure;BME280_temperature;BME280_humidity;BME280_pressure;Samples;Min_cycle;Max_cycle;Signal;HPM_P1;HPM_P2
2020/12/08 00:04:48;;;;;;;5.73;4.07;;;19.80;59.00;;;;;;15632469;28;20993;-61
2020/12/08 00:12:26;;;;;;;5.17;4.10;;;19.80;59.00;;;;;;15632900;28;20451;-61
2020/12/08 00:19:57;;;;;;;5.88;4.28;;;19.80;59.00;;;;;;15634942;28;20112;-60
2020/12/08 00:27:27;;;;;;;7.10;4.90;;;19.80;59.10;;;;;;15613589;28;20025;-61
2020/12/08 00:34:58;;;;;;;6.00;4.70;;;19.80;59.10;;;;;;15630887;28;20456;-60
2020/12/08 00:42:28;;;;;;;6.13;3.97;;;19.80;59.20;;;;;;15630731;28;20488;-60
2020/12/08 00:49:59;;;;;;;5.40;3.67;;;19.80;59.30;;;;;;15648401;28;20385;-61
2020/12/08 00:57:29;;;;;;;5.68;3.60;;;19.80;59.40;;;;;;15659587;28;20034;-60
2020/12/08 01:05:00;;;;;;;5.43;3.80;;;19.80;59.50;;;;;;15629987;28;20132;-60
2020/12/08 01:12:30;;;;;;;4.97;3.05;;;19.80;59.40;;;;;;15628172;28;20029;-60
2020/12/08 01:20:01;;;;;;;5.47;3.50;;;19.80;59.40;;;;;;15611109;28;20022;-60
2020/12/08 01:27:32;;;;;;;5.00;3.28;;;19.80;59.40;;;;;;15628457;28;20444;-60
2020/12/08 01:35:03;;;;;;;5.28;3.70;;;19.80;59.60;;;;;;15628664;28;20025;-60
2020/12/08 01:42:34;;;;;;;5.22;3.75;;;19.80;59.70;;;;;;15627692;28;20026;-60
2020/12/08 01:50:04;;;;;;;6.27;4.40;;;19.80;59.80;;;;;;15627053;28;20038;-60
2020/12/08 01:57:35;;;;;;;4.82;3.13;;;19.70;59.80;;;;;;15626639;28;20396;-60
2020/12/08 02:05:05;;;;;;;4.00;2.57;;;19.70;60.10;;;;;;15626870;28;20045;-60
2020/12/08 02:12:36;;;;;;;4.72;2.92;;;19.80;60.20;;;;;;15625317;28;20037;-60
2020/12/08 02:20:06;;;;;;;5.03;3.42;;;19.70;60.00;;;;;;15624428;28;20030;-60
2020/12/08 02:27:37;;;;;;;4.20;2.73;;;19.80;59.90;;;;;;15625319;28;20480;-60
2020/12/08 04:07:12;;;;;;;3.95;2.33;;;19.70;60.10;;;;;;15981493;22;20041;-62
2020/12/08 04:14:42;;;;;;;4.50;2.77;;;19.80;60.10;;;;;;15632533;28;20037;-62
2020/12/08 04:22:13;;;;;;;3.60;2.53;;;19.80;60.10;;;;;;15632227;28;20021;-62
2020/12/08 04:29:43;;;;;;;4.40;2.85;;;19.70;60.10;;;;;;15632508;28;20028;-62
2020/12/08 04:37:14;;;;;;;3.73;2.63;;;19.70;60.20;;;;;;15631071;28;20029;-62
2020/12/08 04:44:45;;;;;;;3.05;2.20;;;19.70;60.30;;;;;;15631045;28;20030;-62
2020/12/08 04:52:15;;;;;;;3.38;2.45;;;19.70;60.40;;;;;;15630367;28;20518;-62
2020/12/08 04:59:46;;;;;;;3.53;2.37;;;19.70;60.40;;;;;;15630770;28;20026;-62
2020/12/08 05:07:25;;;;;;;3.40;2.20;;;19.70;60.70;;;;;;15629440;28;20033;-62
2020/12/08 05:14:56;;;;;;;3.83;2.55;;;19.70;60.40;;;;;;15629828;28;20430;-62
2020/12/08 05:22:26;;;;;;;3.37;2.33;;;19.70;60.30;;;;;;15629722;28;20021;-62
2020/12/08 05:30:03;;;;;;;3.25;2.30;;;19.70;60.30;;;;;;15629700;28;20030;-62
2020/12/08 05:37:36;;;;;;;4.07;2.05;;;19.70;60.40;;;;;;15627692;28;20036;-64
2020/12/08 05:45:09;;;;;;;3.40;2.00;;;19.80;60.50;;;;;;15628827;28;20171;-62
2020/12/08 05:52:44;;;;;;;2.67;1.90;;;19.70;60.50;;;;;;15626408;28;20422;-62
2020/12/08 06:00:24;;;;;;;4.93;2.47;;;19.70;60.70;;;;;;15627155;28;20026;-62
2020/12/08 06:07:54;;;;;;;11.25;8.55;;;19.70;61.00;;;;;;15625717;28;20037;-63
2020/12/08 06:15:26;;;;;;;3.92;2.40;;;19.70;60.90;;;;;;15609712;28;20501;-63
2020/12/08 06:22:58;;;;;;;4.97;2.90;;;19.80;60.90;;;;;;15625600;28;20029;-63
2020/12/08 06:30:29;;;;;;;12.60;8.68;;;19.80;60.90;;;;;;15624204;28;20033;-61
2020/12/08 06:38:01;;;;;;;5.60;3.90;;;19.70;63.60;;;;;;15623865;28;20032;-62
2020/12/08 06:45:31;;;;;;;5.43;4.07;;;19.80;61.70;;;;;;15623984;28;20030;-62
2020/12/08 06:53:03;;;;;;;4.63;3.07;;;19.80;61.60;;;;;;15623402;28;20041;-62
2020/12/08 07:00:33;;;;;;;5.30;2.97;;;19.70;61.30;;;;;;15623633;28;20033;-62
2020/12/08 07:08:06;;;;;;;9.05;6.68;;;19.80;61.50;;;;;;15630603;28;20049;-62
2020/12/08 07:15:36;;;;;;;11.90;4.90;;;19.80;57.60;;;;;;15636026;28;20468;-62
2020/12/08 07:23:10;;;;;;;6.10;4.40;;;19.70;59.10;;;;;;15636089;28;20022;-62
2020/12/08 07:30:49;;;;;;;6.53;3.85;;;19.70;58.80;;;;;;15635589;28;20830;-62
2020/12/08 07:38:19;;;;;;;5.32;3.17;;;19.70;59.10;;;;;;15634992;28;20117;-62
2020/12/08 07:45:50;;;;;;;5.67;3.17;;;19.70;59.40;;;;;;15635097;28;20495;-62
2020/12/08 07:53:20;;;;;;;6.10;2.93;;;19.70;59.60;;;;;;15633405;28;20554;-62
2020/12/08 08:00:51;;;;;;;4.33;3.13;;;19.70;59.70;;;;;;15633350;28;20535;-62
2020/12/08 08:08:22;;;;;;;4.03;2.70;;;19.70;59.50;;;;;;15632287;28;20033;-62
2020/12/08 08:15:52;;;;;;;6.00;2.40;;;19.70;59.60;;;;;;15632519;28;20060;-62
2020/12/08 08:23:23;;;;;;;3.53;2.10;;;19.70;59.70;;;;;;15631477;28;20022;-62
2020/12/08 08:30:53;;;;;;;5.73;4.30;;;19.70;59.80;;;;;;15630864;28;20037;-62
2020/12/08 08:38:27;;;;;;;6.00;4.17;;;19.70;58.80;;;;;;15630502;28;20077;-62
2020/12/08 08:45:57;;;;;;;4.93;3.25;;;19.70;57.40;;;;;;15630428;28;20065;-62
2020/12/08 08:53:28;;;;;;;4.33;2.83;;;19.70;57.10;;;;;;15630522;28;20487;-62
2020/12/08 09:00:58;;;;;;;5.13;3.10;;;19.70;56.90;;;;;;15629260;28;20519;-62
2020/12/08 09:08:29;;;;;;;10.37;8.13;;;19.70;56.70;;;;;;15611330;28;20395;-64
2020/12/08 09:16:00;;;;;;;6.97;5.23;;;19.60;54.70;;;;;;15628238;28;20470;-62
2020/12/08 09:23:31;;;;;;;6.90;4.20;;;19.60;56.20;;;;;;15629185;28;20448;-63
2020/12/08 09:31:01;;;;;;;7.55;5.47;;;19.60;56.00;;;;;;15627575;28;20064;-63
2020/12/08 09:38:32;;;;;;;3.50;2.30;;;19.60;56.40;;;;;;15629373;28;20026;-63
2020/12/08 09:46:02;;;;;;;5.97;2.90;;;19.60;56.80;;;;;;15626553;28;20026;-62
2020/12/08 09:53:33;;;;;;;4.32;3.15;;;19.50;57.10;;;;;;15626060;28;21096;-62
2020/12/08 10:08:36;;;;;;;3.85;2.10;;;19.60;57.30;;;;;;15503187;28;20516;-63
2020/12/08 10:16:07;;;;;;;3.73;1.93;;;19.70;56.90;;;;;;15503845;28;20396;-61
2020/12/08 10:23:37;;;;;;;4.78;2.78;;;19.70;56.80;;;;;;15502746;28;20030;-63
2020/12/08 10:31:08;;;;;;;5.18;2.42;;;19.70;56.80;;;;;;15504663;28;20035;-62
2020/12/08 10:38:39;;;;;;;4.23;2.67;;;19.70;56.20;;;;;;15504675;28;20472;-62
2020/12/08 10:46:09;;;;;;;3.83;2.30;;;19.70;55.90;;;;;;15503685;28;20593;-61
2020/12/08 10:53:39;;;;;;;3.50;2.40;;;19.60;55.70;;;;;;15516288;28;20031;-62
2020/12/08 11:01:16;;;;;;;4.13;2.67;;;19.60;55.70;;;;;;15512286;28;20030;-61
2020/12/08 11:08:47;;;;;;;5.80;2.80;;;19.60;55.70;;;;;;15502109;28;20051;-61
2020/12/08 11:16:18;;;;;;;5.63;2.13;;;19.60;55.60;;;;;;15501600;28;20033;-60
2020/12/08 11:23:49;;;;;;;5.25;3.42;;;19.60;55.70;;;;;;15501789;28;20444;-60
2020/12/08 11:31:20;;;;;;;4.03;2.55;;;19.60;54.70;;;;;;15501209;28;20088;-60
2020/12/08 11:38:51;;;;;;;10.48;2.88;;;19.60;55.00;;;;;;15500679;28;20065;-61
2020/12/08 11:46:21;;;;;;;5.07;2.40;;;19.60;55.30;;;;;;15500665;28;20027;-60
2020/12/08 11:53:52;;;;;;;6.13;2.10;;;19.60;55.40;;;;;;15505111;28;20026;-60
2020/12/08 12:01:24;;;;;;;5.30;1.90;;;19.60;55.50;;;;;;15511421;28;20026;-60
2020/12/08 12:08:54;;;;;;;3.10;1.23;;;19.60;55.80;;;;;;15511253;28;20034;-60
2020/12/08 12:16:25;;;;;;;2.83;1.50;;;19.60;56.30;;;;;;15509873;28;20504;-61
2020/12/08 12:23:57;;;;;;;5.33;1.50;;;19.60;56.70;;;;;;15509023;28;20454;-61
2020/12/08 12:31:28;;;;;;;3.30;1.63;;;19.70;56.90;;;;;;15507684;28;20030;-61
2020/12/08 12:38:58;;;;;;;2.87;1.40;;;19.70;57.00;;;;;;15509641;28;20042;-62
2020/12/08 12:46:29;;;;;;;5.77;2.00;;;19.70;57.00;;;;;;15508949;28;20404;-63
2020/12/08 12:53:59;;;;;;;4.03;1.47;;;19.70;56.90;;;;;;15508427;28;20449;-63
2020/12/08 13:01:30;;;;;;;2.90;1.60;;;19.70;56.70;;;;;;15508649;28;20466;-63
2020/12/08 13:09:00;;;;;;;2.47;1.30;;;19.80;56.60;;;;;;15504941;28;21062;-64
2020/12/08 13:16:32;;;;;;;3.67;1.87;;;19.80;56.60;;;;;;15506290;28;20465;-62
2020/12/08 13:24:03;;;;;;;3.78;2.13;;;19.80;56.80;;;;;;15506119;28;20804;-62
2020/12/08 13:31:33;;;;;;;3.90;2.23;;;19.80;58.00;;;;;;15506981;28;20022;-62
2020/12/08 13:39:04;;;;;;;5.13;1.53;;;19.80;58.20;;;;;;15506398;28;20057;-63
2020/12/08 13:46:34;;;;;;;2.28;1.52;;;19.80;58.30;;;;;;15504893;28;20022;-62
2020/12/08 13:54:05;;;;;;;5.63;2.00;;;19.80;58.50;;;;;;15504860;28;20034;-62
2020/12/08 14:01:35;;;;;;;4.10;2.10;;;19.80;58.40;;;;;;15502707;28;20041;-62
2020/12/08 14:09:05;;;;;;;2.77;1.80;;;19.80;58.50;;;;;;15504254;28;20034;-63
2020/12/08 14:16:36;;;;;;;5.77;2.07;;;19.80;58.40;;;;;;15502957;28;20034;-62
2020/12/08 14:24:18;;;;;;;2.53;1.80;;;19.80;58.50;;;;;;15502907;28;20018;-63
2020/12/08 14:31:49;;;;;;;3.08;1.85;;;19.80;58.70;;;;;;15502937;28;20033;-62
2020/12/08 14:39:19;;;;;;;2.40;1.30;;;19.80;58.80;;;;;;15502422;28;20027;-62
2020/12/08 14:46:50;;;;;;;2.23;1.20;;;19.80;58.80;;;;;;15501618;28;20030;-62
2020/12/08 14:54:20;;;;;;;2.15;1.42;;;19.90;58.60;;;;;;15501229;28;20517;-62
2020/12/08 15:01:52;;;;;;;2.67;1.40;;;19.90;58.40;;;;;;15500094;28;20035;-62
2020/12/08 15:09:23;;;;;;;2.30;1.50;;;19.80;58.30;;;;;;15501267;28;20421;-62
2020/12/08 15:16:53;;;;;;;2.00;1.30;;;19.90;58.30;;;;;;15501723;28;20041;-62
2020/12/08 15:24:24;;;;;;;3.88;2.30;;;19.90;58.60;;;;;;15500634;28;20062;-62
2020/12/08 15:31:54;;;;;;;5.38;1.83;;;19.80;58.70;;;;;;15509492;28;20050;-60
2020/12/08 15:39:25;;;;;;;3.67;1.50;;;19.80;59.70;;;;;;15511672;28;20448;-61
2020/12/08 15:46:56;;;;;;;4.07;1.70;;;20.00;59.20;;;;;;15510846;28;20409;-60
2020/12/08 15:54:26;;;;;;;5.37;2.10;;;20.00;59.40;;;;;;15510514;28;20030;-61
2020/12/08 16:01:57;;;;;;;5.27;1.80;;;20.10;59.50;;;;;;15547861;23;21031;-59
2020/12/08 16:09:27;;;;;;;2.72;1.20;;;20.10;59.30;;;;;;15633201;28;20416;-59
2020/12/08 16:17:02;;;;;;;2.37;1.50;;;20.20;59.10;;;;;;15632969;28;20376;-59
2020/12/08 16:24:32;;;;;;;3.37;1.93;;;20.20;58.90;;;;;;15631738;28;20022;-60
2020/12/08 16:32:03;;;;;;;4.30;2.00;;;20.20;58.80;;;;;;15631752;28;20030;-60
2020/12/08 16:39:34;;;;;;;4.15;1.60;;;20.20;58.80;;;;;;15630146;28;20033;-59
2020/12/08 16:47:04;;;;;;;2.27;1.50;;;20.20;58.80;;;;;;15630778;28;20096;-59
2020/12/08 16:54:35;;;;;;;3.63;2.27;;;20.20;58.80;;;;;;15630628;28;20472;-60
2020/12/08 17:02:17;;;;;;;6.03;2.00;;;20.20;60.00;;;;;;15628983;28;20452;-59
2020/12/08 17:09:48;;;;;;;3.83;1.75;;;20.20;59.90;;;;;;15629685;28;20021;-60
2020/12/08 17:17:19;;;;;;;7.03;2.40;;;20.20;59.50;;;;;;15629321;28;20079;-60
2020/12/08 17:24:49;;;;;;;5.25;2.20;;;20.20;59.80;;;;;;15628266;28;20460;-60
2020/12/08 17:32:20;;;;;;;5.40;1.70;;;20.30;59.90;;;;;;15629251;28;20049;-60
2020/12/08 17:39:50;;;;;;;3.83;2.23;;;20.30;59.60;;;;;;15627727;28;20021;-60
2020/12/08 17:47:21;;;;;;;3.97;2.23;;;20.40;59.60;;;;;;15626477;28;20460;-60
2020/12/08 17:54:51;;;;;;;6.07;4.67;;;20.40;59.60;;;;;;15625698;28;20554;-59
2020/12/08 18:02:22;;;;;;;14.57;6.93;;;20.50;59.70;;;;;;15625934;28;20041;-60
2020/12/08 18:09:52;;;;;;;12.20;7.03;;;20.40;59.00;;;;;;15625575;28;20083;-60
2020/12/08 18:17:23;;;;;;;8.45;6.20;;;20.40;58.20;;;;;;15625056;28;20018;-60
2020/12/08 18:24:54;;;;;;;10.63;5.32;;;20.30;58.00;;;;;;15624587;28;20091;-59
2020/12/08 18:32:24;;;;;;;8.70;5.67;;;20.30;58.00;;;;;;15625362;28;20025;-60
2020/12/08 18:39:55;;;;;;;7.55;5.38;;;20.40;57.90;;;;;;15624028;28;20029;-60
2020/12/08 18:47:26;;;;;;;8.03;5.93;;;20.40;57.90;;;;;;15624247;28;20502;-60
2020/12/08 18:54:57;;;;;;;7.63;5.40;;;20.30;57.90;;;;;;15624224;28;20503;-60
2020/12/08 19:02:27;;;;;;;8.13;5.40;;;20.40;57.90;;;;;;15622861;28;20064;-60
2020/12/08 19:09:58;;;;;;;7.90;4.97;;;20.40;58.10;;;;;;15624775;28;20440;-59
2020/12/08 19:17:28;;;;;;;7.27;4.90;;;20.40;58.20;;;;;;15621144;28;20040;-60
2020/12/08 19:24:59;;;;;;;7.80;5.43;;;20.40;58.10;;;;;;15651976;28;20064;-60
2020/12/08 19:32:30;;;;;;;8.52;4.68;;;20.50;58.30;;;;;;15630140;28;20034;-61
2020/12/08 19:40:00;;;;;;;9.40;7.63;;;20.50;58.00;;;;;;15626946;28;20026;-60
2020/12/08 19:47:35;;;;;;;7.55;4.80;;;20.40;58.30;;;;;;15604849;28;20056;-59
2020/12/08 19:55:07;;;;;;;7.63;4.55;;;20.40;58.50;;;;;;15623951;28;20029;-60
2020/12/08 20:02:38;;;;;;;5.10;2.83;;;20.40;58.60;;;;;;15621495;28;20033;-61
2020/12/08 20:10:10;;;;;;;6.93;4.10;;;20.30;58.60;;;;;;15603641;28;20411;-60
2020/12/08 20:17:42;;;;;;;5.18;4.00;;;20.30;58.80;;;;;;15631227;28;20138;-60
2020/12/08 20:25:13;;;;;;;5.13;4.00;;;20.30;59.10;;;;;;15632128;28;20030;-59
2020/12/08 20:32:44;;;;;;;5.60;3.35;;;20.30;59.00;;;;;;15631931;28;20079;-59
2020/12/08 20:40:14;;;;;;;4.70;3.35;;;20.40;58.90;;;;;;15631066;28;20087;-59
2020/12/08 20:47:46;;;;;;;5.63;3.43;;;20.40;58.70;;;;;;15630572;28;20030;-59
2020/12/08 20:55:16;;;;;;;5.20;3.67;;;20.40;58.50;;;;;;15612988;28;20479;-59
2020/12/08 21:02:49;;;;;;;4.00;2.88;;;20.40;58.40;;;;;;15631065;28;20403;-59
2020/12/08 21:10:22;;;;;;;6.88;3.17;;;20.40;58.90;;;;;;15619515;28;20120;-60
2020/12/08 21:17:53;;;;;;;4.97;2.90;;;20.30;59.30;;;;;;15635779;28;20021;-59
2020/12/08 21:25:27;;;;;;;8.00;3.80;;;20.30;59.60;;;;;;15627972;28;20029;-59
2020/12/08 21:32:58;;;;;;;8.20;3.57;;;20.40;59.50;;;;;;15629111;28;20377;-59
2020/12/08 21:40:29;;;;;;;5.70;3.67;;;20.40;59.50;;;;;;15627777;28;20113;-59
2020/12/08 21:48:00;;;;;;;6.93;4.28;;;20.40;59.40;;;;;;15627332;28;20452;-59
2020/12/08 21:55:31;;;;;;;5.45;3.10;;;20.40;59.30;;;;;;15608750;28;20472;-59
2020/12/08 22:03:01;;;;;;;5.13;3.13;;;20.50;59.10;;;;;;15626111;28;20125;-59
2020/12/08 22:10:32;;;;;;;5.33;3.30;;;20.50;58.90;;;;;;15626271;28;20028;-59
2020/12/08 22:18:03;;;;;;;4.82;3.15;;;20.50;58.70;;;;;;15641021;22;20440;-59
2020/12/08 22:25:33;;;;;;;4.88;3.05;;;20.50;58.70;;;;;;15625043;28;20535;-59
2020/12/08 22:33:04;;;;;;;5.30;3.08;;;20.40;59.10;;;;;;15624111;28;20125;-58
2020/12/08 22:40:35;;;;;;;7.00;2.70;;;20.40;59.10;;;;;;15623614;28;20069;-58
2020/12/08 22:48:05;;;;;;;4.75;2.72;;;20.40;58.90;;;;;;15624444;28;20025;-58
2020/12/08 22:55:36;;;;;;;4.20;2.83;;;20.30;58.90;;;;;;15623180;28;20030;-58
2020/12/08 23:03:07;;;;;;;4.40;2.80;;;20.30;58.90;;;;;;15623032;28;20480;-58
2020/12/08 23:10:37;;;;;;;7.30;2.63;;;20.30;58.90;;;;;;15622770;28;20022;-58
2020/12/08 23:18:08;;;;;;;4.20;2.53;;;20.20;58.90;;;;;;15623675;28;20044;-58
2020/12/08 23:25:39;;;;;;;6.30;2.50;;;20.20;59.00;;;;;;15622773;28;20030;-58
2020/12/08 23:33:10;;;;;;;3.80;2.55;;;20.20;58.90;;;;;;15622146;28;20459;-58
2020/12/08 23:40:40;;;;;;;4.55;2.42;;;20.20;58.90;;;;;;15622264;28;20100;-58
2020/12/08 23:48:11;;;;;;;4.60;2.73;;;20.20;58.90;;;;;;15625528;28;20030;-58
2020/12/08 23:55:41;;;;;;;5.93;2.80;;;20.20;58.90;;;;;;15633013;28;20022;-58
